Time;durP1;ratioP1;P1;durP2;ratioP2;P2;SDS_P1;SDS_P2;PMS_P1;PMS_P2;Temp;Humidity;BMP_temperature;BMP_pressure;BME280_temperature;BME280_humidity;BME280_pressure;Samples;Min_cycle;Max_cycle;Signal;HPM_P1;HPM_P2
2022/01/11 00:00:59;;;;;;;98.37;39.00;;;1.80;99.90;;;;;;5020487;28;38861;-78
2022/01/11 00:03:25;;;;;;;91.33;38.37;;;1.80;99.90;;;;;;4998753;28;38940;-77
2022/01/11 00:05:57;;;;;;;92.83;39.73;;;1.80;99.90;;;;;;5035891;28;38173;-76
2022/01/11 00:08:32;;;;;;;88.45;39.42;;;1.80;99.90;;;;;;5023456;28;39592;-76
2022/01/11 00:11:04;;;;;;;101.00;39.73;;;1.80;99.90;;;;;;5020187;28;38916;-77
2022/01/11 00:13:39;;;;;;;104.75;41.58;;;1.80;99.90;;;;;;5043538;28;47331;-76
2022/01/11 00:16:07;;;;;;;101.40;42.10;;;1.80;99.90;;;;;;5020789;28;37327;-76
2022/01/11 00:18:34;;;;;;;101.33;42.07;;;1.80;99.90;;;;;;5023898;28;38942;-76
2022/01/11 00:21:01;;;;;;;119.30;45.57;;;1.80;99.90;;;;;;5003785;28;39098;-78
2022/01/11 00:25:56;;;;;;;118.53;46.77;;;1.80;99.90;;;;;;5016038;28;38634;-76
2022/01/11 00:28:28;;;;;;;122.30;46.43;;;1.80;99.90;;;;;;4997183;28;39379;-77
2022/01/11 00:30:54;;;;;;;127.05;46.03;;;1.90;99.90;;;;;;5015630;28;39306;-77
2022/01/11 00:33:30;;;;;;;119.30;47.50;;;1.90;99.90;;;;;;5019306;28;39299;-76
2022/01/11 00:35:58;;;;;;;125.03;47.30;;;1.90;99.90;;;;;;5004648;28;38359;-76
2022/01/11 00:38:29;;;;;;;125.33;46.37;;;2.00;99.90;;;;;;4999990;28;40163;-76
2022/01/11 00:40:59;;;;;;;97.33;42.57;;;2.00;99.90;;;;;;5036167;28;39517;-76
2022/01/11 00:43:27;;;;;;;100.10;42.23;;;2.00;99.90;;;;;;5018930;28;39657;-76
2022/01/11 00:45:54;;;;;;;106.13;44.67;;;2.10;99.90;;;;;;5018776;28;38275;-76
2022/01/11 00:48:20;;;;;;;100.93;42.03;;;2.10;99.90;;;;;;5021168;28;39858;-76
2022/01/11 00:50:47;;;;;;;106.87;43.57;;;2.10;99.90;;;;;;5034595;28;39028;-76
2022/01/11 00:53:14;;;;;;;97.17;41.20;;;2.10;99.90;;;;;;5018224;28;39469;-76
2022/01/11 00:55:40;;;;;;;95.90;40.97;;;2.10;99.90;;;;;;5006790;28;39049;-76
2022/01/11 00:58:07;;;;;;;94.37;41.67;;;2.20;99.90;;;;;;5023980;28;38808;-78
2022/01/11 01:00:36;;;;;;;90.83;39.20;;;2.10;99.90;;;;;;5021445;28;39138;-76
2022/01/11 01:03:03;;;;;;;94.93;40.07;;;2.10;99.90;;;;;;5019846;28;38653;-76
2022/01/11 01:05:30;;;;;;;91.70;40.03;;;2.20;99.90;;;;;;5017441;28;36961;-76
2022/01/11 01:07:56;;;;;;;91.93;38.13;;;2.20;99.90;;;;;;4999353;28;40196;-76
2022/01/11 01:10:26;;;;;;;96.27;40.40;;;2.20;99.90;;;;;;5022827;28;39498;-77
2022/01/11 01:12:53;;;;;;;92.57;39.13;;;2.20;99.90;;;;;;5003717;28;38034;-76
2022/01/11 01:15:21;;;;;;;85.87;38.27;;;2.10;99.90;;;;;;5031480;28;37354;-76
2022/01/11 01:17:47;;;;;;;93.73;40.37;;;2.10;99.90;;;;;;5033934;28;38378;-76
2022/01/11 01:20:14;;;;;;;96.20;40.97;;;2.10;99.90;;;;;;5019871;28;38907;-76
2022/01/11 01:22:40;;;;;;;93.83;41.30;;;2.10;99.90;;;;;;5018277;28;37068;-76
2022/01/11 01:25:07;;;;;;;92.17;41.13;;;2.20;99.90;;;;;;4999113;28;36899;-76
2022/01/11 01:27:34;;;;;;;103.20;42.47;;;2.20;99.90;;;;;;5020036;28;39868;-76
2022/01/11 01:30:00;;;;;;;101.53;42.77;;;2.20;99.90;;;;;;5015532;28;38737;-76
2022/01/11 01:32:26;;;;;;;100.77;43.50;;;2.20;99.90;;;;;;5031769;28;40785;-76
2022/01/11 01:35:01;;;;;;;102.90;42.33;;;2.20;99.90;;;;;;5016908;28;36627;-77
2022/01/11 01:37:27;;;;;;;98.87;42.00;;;2.10;99.90;;;;;;5050034;28;47633;-76
2022/01/11 01:39:59;;;;;;;107.63;43.33;;;2.20;99.90;;;;;;5033390;28;38931;-77
2022/01/11 01:42:29;;;;;;;103.00;44.63;;;2.20;99.90;;;;;;5037637;28;39099;-76
2022/01/11 01:44:56;;;;;;;103.07;42.53;;;2.20;99.90;;;;;;5033048;28;36936;-76
2022/01/11 01:47:22;;;;;;;107.23;43.13;;;2.20;99.90;;;;;;5030551;28;41615;-77
2022/01/11 01:49:48;;;;;;;100.60;43.40;;;2.20;99.90;;;;;;5037555;28;39024;-77
2022/01/11 01:52:16;;;;;;;110.37;45.07;;;2.20;99.90;;;;;;5020286;28;38851;-77
2022/01/11 01:54:53;;;;;;;110.80;43.87;;;2.20;99.90;;;;;;5035654;28;38072;-77
2022/01/11 01:57:19;;;;;;;101.43;41.60;;;2.20;99.90;;;;;;5017379;28;39339;-76
2022/01/11 01:59:49;;;;;;;103.70;45.17;;;2.20;99.90;;;;;;5037766;28;38003;-77
2022/01/11 02:02:15;;;;;;;112.33;45.40;;;2.20;99.90;;;;;;4991773;28;39201;-77
2022/01/11 02:04:44;;;;;;;115.43;44.03;;;2.20;99.90;;;;;;5032738;28;36617;-76
2022/01/11 02:07:11;;;;;;;115.43;45.50;;;2.20;99.90;;;;;;5016287;28;38856;-76
2022/01/11 02:09:37;;;;;;;106.47;44.03;;;2.20;99.90;;;;;;5026320;28;39211;-77
2022/01/11 02:12:08;;;;;;;106.40;42.97;;;2.20;99.90;;;;;;5027338;28;38203;-76
2022/01/11 02:14:34;;;;;;;110.80;43.80;;;2.20;99.90;;;;;;4982395;28;47950;-77
2022/01/11 02:17:02;;;;;;;107.10;43.77;;;2.20;99.90;;;;;;5028021;28;40292;-76
2022/01/11 02:19:29;;;;;;;104.10;42.40;;;2.20;99.90;;;;;;5039240;28;39853;-76
2022/01/11 02:21:56;;;;;;;115.30;46.90;;;2.30;99.90;;;;;;5035815;28;37088;-76
2022/01/11 02:24:24;;;;;;;108.30;45.40;;;2.20;99.90;;;;;;5018382;28;38303;-76
2022/01/11 02:26:50;;;;;;;105.90;44.33;;;2.20;99.90;;;;;;5035787;28;38369;-76
2022/01/11 02:29:18;;;;;;;120.63;46.80;;;2.20;99.90;;;;;;5036851;28;37629;-77
2022/01/11 02:31:45;;;;;;;128.50;47.10;;;2.20;99.90;;;;;;5013619;28;38485;-77
2022/01/11 02:34:17;;;;;;;113.67;49.47;;;2.20;99.90;;;;;;4997396;28;36866;-76
2022/01/11 02:36:43;;;;;;;122.40;48.42;;;2.20;99.90;;;;;;5017656;28;39523;-77
2022/01/11 02:39:09;;;;;;;126.77;48.13;;;2.20;99.90;;;;;;5024140;28;38936;-76
2022/01/11 02:41:47;;;;;;;126.97;50.70;;;2.20;99.90;;;;;;5025056;28;38246;-76
2022/01/11 02:44:13;;;;;;;117.90;48.70;;;2.20;99.90;;;;;;5033271;28;38402;-76
2022/01/11 02:46:43;;;;;;;133.57;53.57;;;2.20;99.90;;;;;;5022826;28;37642;-77
2022/01/11 02:49:09;;;;;;;138.93;52.60;;;2.20;99.90;;;;;;5022714;28;38660;-77
2022/01/11 02:51:35;;;;;;;124.83;51.87;;;2.20;99.90;;;;;;5008554;28;37139;-76
2022/01/11 02:54:05;;;;;;;121.80;52.23;;;2.20;99.90;;;;;;4997952;28;36417;-76
2022/01/11 02:56:32;;;;;;;131.10;53.43;;;2.20;99.90;;;;;;5039586;28;39759;-76
2022/01/11 02:58:58;;;;;;;145.70;56.27;;;2.20;99.90;;;;;;5017786;28;40602;-76
2022/01/11 03:01:25;;;;;;;150.13;58.60;;;2.20;99.90;;;;;;5013334;28;39445;-76
2022/01/11 03:03:52;;;;;;;135.33;54.43;;;2.20;99.90;;;;;;5038412;28;37030;-77
2022/01/11 03:06:18;;;;;;;137.40;54.10;;;2.20;99.90;;;;;;5034028;28;38118;-76
2022/01/11 03:08:47;;;;;;;128.23;52.93;;;2.20;99.90;;;;;;5018231;28;39320;-76
2022/01/11 03:11:15;;;;;;;139.23;54.67;;;2.20;99.90;;;;;;5005975;28;37721;-76
2022/01/11 03:13:43;;;;;;;127.23;51.53;;;2.20;99.90;;;;;;5017315;28;37136;-76
2022/01/11 03:16:12;;;;;;;121.60;51.07;;;2.30;99.90;;;;;;5048492;28;38859;-76
2022/01/11 03:18:39;;;;;;;128.67;51.37;;;2.30;99.90;;;;;;5035533;28;39437;-76
2022/01/11 03:21:09;;;;;;;121.93;49.73;;;2.20;99.90;;;;;;5048966;28;40032;-76
2022/01/11 03:23:38;;;;;;;135.73;53.33;;;2.20;99.90;;;;;;5033064;28;38483;-76
2022/01/11 03:26:04;;;;;;;119.67;50.37;;;2.30;99.90;;;;;;5030409;28;37733;-75
2022/01/11 03:28:32;;;;;;;128.90;53.13;;;2.30;99.90;;;;;;5037117;28;39837;-76
2022/01/11 03:31:01;;;;;;;122.23;51.67;;;2.30;99.90;;;;;;5016590;28;39289;-76
2022/01/11 03:33:46;;;;;;;118.33;49.27;;;2.20;99.90;;;;;;5018187;28;48312;-76
2022/01/11 03:36:12;;;;;;;122.63;50.10;;;2.20;99.90;;;;;;5036070;28;38663;-76
2022/01/11 03:38:39;;;;;;;123.13;53.33;;;2.20;99.90;;;;;;5018866;28;39419;-75
2022/01/11 03:41:05;;;;;;;123.20;51.37;;;2.20;99.90;;;;;;5051613;28;39327;-76
2022/01/11 03:43:32;;;;;;;112.17;49.97;;;2.20;99.90;;;;;;5040667;28;37240;-76
2022/01/11 03:45:59;;;;;;;111.97;49.57;;;2.20;99.90;;;;;;5038580;28;38035;-76
2022/01/11 03:48:25;;;;;;;118.33;50.70;;;2.20;99.90;;;;;;5033840;28;39674;-76
2022/01/11 03:50:59;;;;;;;107.03;50.17;;;2.20;99.90;;;;;;5023651;28;38474;-76
2022/01/11 03:53:30;;;;;;;112.40;46.33;;;2.10;99.90;;;;;;5039026;28;37562;-76
2022/01/11 03:56:21;;;;;;;119.00;49.83;;;2.20;99.90;;;;;;5023513;28;38668;-76
2022/01/11 03:58:47;;;;;;;122.90;52.13;;;2.10;99.90;;;;;;5016543;28;42400;-75
2022/01/11 04:01:21;;;;;;;118.03;49.47;;;2.10;99.90;;;;;;5018333;28;38393;-76
2022/01/11 04:03:48;;;;;;;125.77;50.83;;;2.10;99.90;;;;;;5038530;28;37490;-76
2022/01/11 04:06:30;;;;;;;118.20;50.03;;;2.10;99.90;;;;;;5040571;28;38703;-76
2022/01/11 04:08:57;;;;;;;108.17;47.03;;;2.10;99.90;;;;;;5021079;28;38095;-76
2022/01/11 04:11:38;;;;;;;102.63;45.97;;;2.00;99.90;;;;;;5019219;28;38671;-76
2022/01/11 04:14:06;;;;;;;108.90;47.40;;;2.00;99.90;;;;;;5038131;28;37859;-76
2022/01/11 04:16:33;;;;;;;104.87;46.47;;;2.00;99.90;;;;;;5039544;28;39346;-76
2022/01/11 04:18:59;;;;;;;104.60;44.93;;;2.00;99.90;;;;;;5053824;28;39533;-77
2022/01/11 04:21:25;;;;;;;112.67;44.83;;;2.00;99.90;;;;;;5024973;28;37898;-75
2022/01/11 04:23:53;;;;;;;96.43;44.77;;;1.90;99.90;;;;;;5020898;28;38466;-76
2022/01/11 04:26:27;;;;;;;111.40;45.50;;;2.00;99.90;;;;;;5047449;28;38737;-76
2022/01/11 04:28:56;;;;;;;99.77;44.43;;;1.90;99.90;;;;;;5024448;28;39502;-76
2022/01/11 04:31:22;;;;;;;90.00;43.40;;;1.90;99.90;;;;;;5015272;28;39345;-76
2022/01/11 04:33:49;;;;;;;101.23;43.87;;;1.90;99.90;;;;;;5037222;28;36410;-76
2022/01/11 04:36:17;;;;;;;89.00;42.20;;;1.90;99.90;;;;;;5018110;28;39201;-75
2022/01/11 04:38:47;;;;;;;98.73;45.20;;;1.90;99.90;;;;;;5010078;28;38708;-76
2022/01/11 04:41:19;;;;;;;96.77;42.70;;;1.90;99.90;;;;;;5016760;28;38534;-76
2022/01/11 04:43:45;;;;;;;;;;;1.90;99.90;;;;;;5004189;28;38456;-76
2022/01/11 04:46:11;;;;;;;90.47;41.90;;;1.90;99.90;;;;;;5018662;28;38050;-76
2022/01/11 04:48:40;;;;;;;85.63;41.57;;;1.90;99.90;;;;;;5004049;28;39232;-76
2022/01/11 04:51:06;;;;;;;92.37;40.70;;;2.00;99.90;;;;;;5005617;28;39482;-76
2022/01/11 04:53:33;;;;;;;86.50;40.37;;;1.90;99.90;;;;;;5027801;28;38343;-75
2022/01/11 04:56:00;;;;;;;86.67;41.30;;;2.00;99.90;;;;;;5002240;28;37508;-75
2022/01/11 04:58:26;;;;;;;75.53;39.03;;;2.00;99.90;;;;;;5034616;28;40417;-76
2022/01/11 05:00:52;;;;;;;77.80;38.80;;;1.90;99.90;;;;;;5025832;28;37552;-75
2022/01/11 05:03:19;;;;;;;81.40;38.33;;;2.00;99.90;;;;;;5023362;28;37220;-76
2022/01/11 05:05:46;;;;;;;77.77;39.20;;;2.00;99.90;;;;;;5003740;28;39084;-76
2022/01/11 05:08:14;;;;;;;76.77;40.50;;;2.00;99.90;;;;;;5010876;28;39711;-76
2022/01/11 05:10:46;;;;;;;75.13;39.00;;;2.00;99.90;;;;;;5018929;28;38684;-76
2022/01/11 05:13:14;;;;;;;82.70;39.00;;;2.00;99.90;;;;;;5016651;28;36821;-76
2022/01/11 05:15:41;;;;;;;79.57;41.57;;;2.00;99.90;;;;;;5012618;28;39045;-75
2022/01/11 05:18:09;;;;;;;79.03;39.17;;;2.00;99.90;;;;;;5006106;28;38916;-76
2022/01/11 05:20:38;;;;;;;75.33;39.00;;;2.10;99.90;;;;;;5023511;28;40303;-76
2022/01/11 05:23:04;;;;;;;73.20;37.73;;;2.10;99.90;;;;;;5011193;28;37775;-75
2022/01/11 05:25:31;;;;;;;73.20;38.60;;;2.10;99.90;;;;;;5001580;28;41138;-76
2022/01/11 05:28:01;;;;;;;75.13;38.97;;;2.10;99.90;;;;;;5037734;28;39201;-75
2022/01/11 05:30:48;;;;;;;72.47;39.73;;;2.10;99.90;;;;;;5004383;28;48588;-76
2022/01/11 05:33:17;;;;;;;72.22;40.35;;;2.10;99.90;;;;;;5038138;28;37343;-76
2022/01/11 05:35:43;;;;;;;68.33;37.23;;;2.10;99.90;;;;;;5003817;28;41007;-76
2022/01/11 05:38:16;;;;;;;69.30;37.63;;;2.10;99.90;;;;;;5031680;28;37945;-76
2022/01/11 05:40:42;;;;;;;68.90;38.43;;;2.10;99.90;;;;;;5020616;28;39400;-75
2022/01/11 05:43:09;;;;;;;68.53;35.40;;;2.10;99.90;;;;;;5023017;28;39237;-76
2022/01/11 05:45:35;;;;;;;69.17;36.20;;;2.10;99.90;;;;;;5005044;28;38714;-76
2022/01/11 05:48:04;;;;;;;74.40;39.03;;;2.10;99.90;;;;;;5017513;28;38766;-76
2022/01/11 05:50:31;;;;;;;63.57;36.20;;;2.20;99.90;;;;;;5051246;28;39031;-75
2022/01/11 05:52:59;;;;;;;72.87;37.87;;;2.10;99.90;;;;;;5051403;28;37928;-76
2022/01/11 05:55:25;;;;;;;62.70;36.07;;;2.10;99.90;;;;;;5035377;28;38939;-76
2022/01/11 05:57:51;;;;;;;64.37;37.07;;;2.10;99.90;;;;;;5036318;28;39043;-76
2022/01/11 06:00:20;;;;;;;71.10;38.37;;;2.10;99.90;;;;;;5024953;28;38545;-76
2022/01/11 06:02:52;;;;;;;66.73;34.90;;;2.20;99.90;;;;;;5037042;28;36272;-76
2022/01/11 06:05:20;;;;;;;64.07;35.50;;;2.20;99.90;;;;;;5028355;28;39232;-76
2022/01/11 06:07:46;;;;;;;70.10;38.23;;;2.10;99.90;;;;;;5040106;28;39204;-76
2022/01/11 06:10:14;;;;;;;67.20;36.70;;;2.10;99.90;;;;;;5020837;28;39622;-75
2022/01/11 06:12:48;;;;;;;70.37;36.77;;;2.10;99.90;;;;;;5017239;28;38957;-76
2022/01/11 06:15:14;;;;;;;71.77;35.93;;;2.10;99.90;;;;;;5024293;28;48672;-76
2022/01/11 06:17:41;;;;;;;61.73;34.97;;;2.20;99.90;;;;;;5018252;28;46352;-76
2022/01/11 06:22:48;;;;;;;73.50;36.33;;;2.10;99.90;;;;;;4553075;26;20045;-73
2022/01/11 06:25:15;;;;;;;67.60;34.90;;;2.20;99.90;;;;;;5042068;28;39584;-75
2022/01/11 06:27:43;;;;;;;67.47;36.43;;;2.20;99.90;;;;;;5045945;28;37606;-74
2022/01/11 06:30:11;;;;;;;59.43;34.23;;;2.20;99.90;;;;;;5034246;28;37288;-72
2022/01/11 06:32:38;;;;;;;65.07;34.73;;;2.20;99.90;;;;;;5029410;28;47416;-74
2022/01/11 06:35:09;;;;;;;64.43;34.17;;;2.10;99.90;;;;;;5060671;28;38302;-73
2022/01/11 06:37:36;;;;;;;56.17;32.47;;;2.20;99.90;;;;;;5026749;28;38631;-74
2022/01/11 06:40:05;;;;;;;51.50;31.20;;;2.20;99.90;;;;;;5047228;28;39258;-74
2022/01/11 06:42:36;;;;;;;60.43;33.23;;;2.20;99.90;;;;;;5056403;28;46957;-74
2022/01/11 06:45:03;;;;;;;57.17;32.23;;;2.20;99.90;;;;;;5029447;28;37535;-74
2022/01/11 06:47:29;;;;;;;61.30;32.77;;;2.20;99.90;;;;;;5062928;28;39722;-73
2022/01/11 06:56:49;;;;;;;45.90;27.57;;;2.30;99.90;;;;;;5067252;28;39573;-74
2022/01/11 06:59:16;;;;;;;49.00;27.90;;;2.30;99.90;;;;;;5047584;28;38696;-74
2022/01/11 07:01:42;;;;;;;47.40;28.33;;;2.30;99.90;;;;;;5049375;28;40591;-74
2022/01/11 07:04:28;;;;;;;45.27;26.13;;;2.40;99.90;;;;;;5042145;28;37583;-74
2022/01/11 07:06:57;;;;;;;43.80;26.33;;;2.40;99.90;;;;;;5041744;28;38685;-74
2022/01/11 07:09:43;;;;;;;42.00;24.53;;;2.40;99.90;;;;;;5054530;28;48634;-74
2022/01/11 07:12:10;;;;;;;46.67;26.40;;;2.40;99.90;;;;;;5045954;28;38615;-74
2022/01/11 07:14:36;;;;;;;46.47;26.50;;;2.40;99.90;;;;;;5049279;28;36833;-74
2022/01/11 07:17:05;;;;;;;48.20;25.70;;;2.40;99.90;;;;;;5033036;28;38896;-74
2022/01/11 07:19:34;;;;;;;42.07;26.23;;;2.40;99.90;;;;;;5059284;28;38656;-74
2022/01/11 07:22:01;;;;;;;43.27;25.73;;;2.40;99.90;;;;;;5046571;28;38763;-76
2022/01/11 07:24:27;;;;;;;47.20;27.27;;;2.40;99.90;;;;;;5045447;28;36444;-73
2022/01/11 07:26:57;;;;;;;50.27;26.00;;;2.40;99.90;;;;;;5038589;28;40013;-74
2022/01/11 07:29:23;;;;;;;42.00;25.40;;;2.40;99.90;;;;;;5042826;28;36872;-74
2022/01/11 07:31:54;;;;;;;46.90;26.43;;;2.40;99.90;;;;;;5043442;28;39180;-74
2022/01/11 07:34:20;;;;;;;50.07;25.87;;;2.40;99.90;;;;;;5046028;28;39646;-73
2022/01/11 07:36:47;;;;;;;43.17;26.10;;;2.40;99.90;;;;;;5037668;28;39007;-74
2022/01/11 07:39:17;;;;;;;43.97;26.33;;;2.40;99.90;;;;;;5035439;28;39036;-74
2022/01/11 07:41:43;;;;;;;45.90;25.13;;;2.40;99.90;;;;;;5026993;28;39870;-74
2022/01/11 07:44:10;;;;;;;44.13;24.23;;;2.30;99.90;;;;;;5035527;28;37413;-74
2022/01/11 07:46:39;;;;;;;43.30;25.70;;;2.30;99.90;;;;;;5046616;28;38663;-74
2022/01/11 07:49:06;;;;;;;45.90;25.50;;;2.30;99.90;;;;;;5036725;28;39244;-73
2022/01/11 07:51:32;;;;;;;45.50;24.27;;;2.30;99.90;;;;;;5025972;28;37186;-74
2022/01/11 08:00:51;;;;;;;45.37;24.50;;;2.30;99.90;;;;;;5041207;28;39590;-74
2022/01/11 08:03:37;;;;;;;41.95;23.88;;;2.30;99.90;;;;;;5040029;28;37876;-74
2022/01/11 08:06:09;;;;;;;42.17;24.40;;;2.30;99.90;;;;;;5023475;28;37456;-74
2022/01/11 09:14:33;;;;;;;43.47;24.30;;;2.30;99.90;;;;;;5054854;28;39381;-75
2022/01/11 09:17:03;;;;;;;40.13;23.43;;;2.30;99.90;;;;;;5040969;28;37616;-73
2022/01/11 09:19:31;;;;;;;36.43;22.53;;;2.30;99.90;;;;;;5045675;28;40022;-73
2022/01/11 09:21:59;;;;;;;36.83;22.27;;;2.30;99.90;;;;;;5045763;28;38566;-73
2022/01/11 09:24:30;;;;;;;39.87;22.87;;;2.30;99.90;;;;;;5059617;28;38542;-73
2022/01/11 09:26:58;;;;;;;37.63;22.40;;;2.30;99.90;;;;;;5047531;28;37317;-73
2022/01/11 09:29:27;;;;;;;44.00;23.50;;;2.30;99.90;;;;;;5025914;28;40678;-73
2022/01/11 09:31:56;;;;;;;46.17;23.63;;;2.30;99.90;;;;;;5068096;28;39212;-74
2022/01/11 09:34:23;;;;;;;40.83;21.90;;;2.30;99.90;;;;;;5064162;28;38464;-74
2022/01/11 09:36:53;;;;;;;44.03;22.27;;;2.30;99.90;;;;;;5033447;28;38706;-74
2022/01/11 09:39:19;;;;;;;36.43;21.40;;;2.30;99.90;;;;;;5050719;28;39066;-73
2022/01/11 09:41:46;;;;;;;43.03;23.47;;;2.30;99.90;;;;;;5049575;28;38957;-76
2022/01/11 09:44:12;;;;;;;37.00;21.87;;;2.40;99.90;;;;;;5028808;28;40283;-73
2022/01/11 09:46:42;;;;;;;39.23;20.87;;;2.40;99.90;;;;;;5043504;28;37769;-73
2022/01/11 09:49:10;;;;;;;39.20;22.90;;;2.40;99.90;;;;;;5022433;28;40726;-73
2022/01/11 09:51:39;;;;;;;42.57;22.07;;;2.40;99.90;;;;;;5069959;28;39128;-72
2022/01/11 09:54:08;;;;;;;38.70;21.23;;;2.50;99.90;;;;;;5034788;28;39547;-74
2022/01/11 09:56:39;;;;;;;37.70;21.83;;;2.50;99.90;;;;;;5051986;28;38463;-73
2022/01/11 09:59:10;;;;;;;37.13;20.53;;;2.50;99.90;;;;;;5046494;28;37895;-73
2022/01/11 10:01:36;;;;;;;43.30;20.97;;;2.50;99.90;;;;;;5068162;28;38010;-73
2022/01/11 10:04:07;;;;;;;33.60;20.17;;;2.60;99.90;;;;;;5058759;28;38475;-73
2022/01/11 10:06:37;;;;;;;37.87;20.90;;;2.60;99.90;;;;;;5042510;28;39677;-73
2022/01/11 10:12:34;;;;;;;35.17;20.00;;;2.60;99.90;;;;;;5065339;28;40321;-73
2022/01/11 10:15:02;;;;;;;35.40;22.20;;;2.70;99.90;;;;;;5051531;28;38512;-73
